sensor_id;sensor_type;location;lat;lon;timestamp;temperature;humidity
20728;DHT22;10525;50.154;8.198;2023-04-01T00:02:22;8.70;99.90
20728;DHT22;10525;50.154;8.198;2023-04-01T00:04:49;8.70;99.90
20728;DHT22;10525;50.154;8.198;2023-04-01T00:07:16;8.80;99.90
20728;DHT22;10525;50.154;8.198;2023-04-01T00:09:42;8.70;99.90
20728;DHT22;10525;50.154;8.198;2023-04-01T00:12:10;8.70;99.90
20728;DHT22;10525;50.154;8.198;2023-04-01T00:14:37;8.70;99.90
20728;DHT22;10525;50.154;8.198;2023-04-01T00:17:05;8.70;99.90
20728;DHT22;10525;50.154;8.198;2023-04-01T00:19:31;8.70;99.90
20728;DHT22;10525;50.154;8.198;2023-04-01T00:21:58;8.80;99.90
20728;DHT22;10525;50.154;8.198;2023-04-01T00:24:25;8.70;99.90
20728;DHT22;10525;50.154;8.198;2023-04-01T00:26:52;8.80;99.90
20728;DHT22;10525;50.154;8.198;2023-04-01T00:29:20;8.70;99.90
20728;DHT22;10525;50.154;8.198;2023-04-01T00:31:46;8.80;99.90
20728;DHT22;10525;50.154;8.198;2023-04-01T00:34:14;8.70;99.90
20728;DHT22;10525;50.154;8.198;2023-04-01T00:36:41;8.70;99.90
20728;DHT22;10525;50.154;8.198;2023-04-01T00:39:07;8.80;99.90
20728;DHT22;10525;50.154;8.198;2023-04-01T00:41:34;8.70;99.90
20728;DHT22;10525;50.154;8.198;2023-04-01T00:44:20;8.70;99.90
20728;DHT22;10525;50.154;8.198;2023-04-01T00:46:47;8.70;99.90
20728;DHT22;10525;50.154;8.198;2023-04-01T00:49:16;8.70;99.90
20728;DHT22;10525;50.154;8.198;2023-04-01T00:51:45;8.70;99.90
20728;DHT22;10525;50.154;8.198;2023-04-01T00:54:15;8.70;99.90
20728;DHT22;10525;50.154;8.198;2023-04-01T00:56:46;8.70;99.90
20728;DHT22;10525;50.154;8.198;2023-04-01T00:59:20;8.70;99.90
20728;DHT22;10525;50.154;8.198;2023-04-01T01:01:48;8.60;99.90
20728;DHT22;10525;50.154;8.198;2023-04-01T01:04:23;8.60;99.90
20728;DHT22;10525;50.154;8.198;2023-04-01T01:06:54;8.60;99.90
20728;DHT22;10525;50.154;8.198;2023-04-01T01:09:32;8.60;99.90
20728;DHT22;10525;50.154;8.198;2023-04-01T01:12:06;8.60;99.90
20728;DHT22;10525;50.154;8.198;2023-04-01T01:14:43;8.60;99.90
20728;DHT22;10525;50.154;8.198;2023-04-01T01:17:14;8.60;99.90
20728;DHT22;10525;50.154;8.198;2023-04-01T01:22:51;8.60;99.90
20728;DHT22;10525;50.154;8.198;2023-04-01T01:25:32;8.60;99.90
20728;DHT22;10525;50.154;8.198;2023-04-01T01:28:12;8.50;99.90
20728;DHT22;10525;50.154;8.198;2023-04-01T01:30:48;8.60;99.90
20728;DHT22;10525;50.154;8.198;2023-04-01T01:33:42;8.60;99.90
20728;DHT22;10525;50.154;8.198;2023-04-01T01:36:15;8.60;99.90
20728;DHT22;10525;50.154;8.198;2023-04-01T01:38:45;8.60;99.90
20728;DHT22;10525;50.154;8.198;2023-04-01T01:41:15;8.60;99.90
20728;DHT22;10525;50.154;8.198;2023-04-01T01:43:46;8.60;99.90
20728;DHT22;10525;50.154;8.198;2023-04-01T01:46:18;8.50;99.90
20728;DHT22;10525;50.154;8.198;2023-04-01T01:48:47;8.50;99.90
20728;DHT22;10525;50.154;8.198;2023-04-01T01:51:15;8.50;99.90
20728;DHT22;10525;50.154;8.198;2023-04-01T01:53:43;8.50;99.90
20728;DHT22;10525;50.154;8.198;2023-04-01T01:56:10;8.50;99.90
20728;DHT22;10525;50.154;8.198;2023-04-01T01:58:39;8.50;99.90
20728;DHT22;10525;50.154;8.198;2023-04-01T02:01:12;8.50;99.90
20728;DHT22;10525;50.154;8.198;2023-04-01T02:03:40;8.50;99.90
20728;DHT22;10525;50.154;8.198;2023-04-01T02:06:11;8.60;99.90
20728;DHT22;10525;50.154;8.198;2023-04-01T02:08:42;8.50;99.90
20728;DHT22;10525;50.154;8.198;2023-04-01T02:11:12;8.50;99.90
20728;DHT22;10525;50.154;8.198;2023-04-01T02:13:43;8.50;99.90
20728;DHT22;10525;50.154;8.198;2023-04-01T02:16:14;8.50;99.90
20728;DHT22;10525;50.154;8.198;2023-04-01T02:18:43;8.50;99.90
20728;DHT22;10525;50.154;8.198;2023-04-01T02:21:12;8.50;99.90
20728;DHT22;10525;50.154;8.198;2023-04-01T02:23:41;8.50;99.90
20728;DHT22;10525;50.154;8.198;2023-04-01T02:26:10;8.50;99.90
20728;DHT22;10525;50.154;8.198;2023-04-01T02:28:38;8.50;99.90
20728;DHT22;10525;50.154;8.198;2023-04-01T02:31:06;8.50;99.90
20728;DHT22;10525;50.154;8.198;2023-04-01T02:33:33;8.50;99.90
20728;DHT22;10525;50.154;8.198;2023-04-01T02:36:00;8.50;99.90
20728;DHT22;10525;50.154;8.198;2023-04-01T02:38:26;8.50;99.90
20728;DHT22;10525;50.154;8.198;2023-04-01T02:40:59;8.50;99.90
20728;DHT22;10525;50.154;8.198;2023-04-01T02:43:27;8.50;99.90
20728;DHT22;10525;50.154;8.198;2023-04-01T02:45:54;8.50;99.90
20728;DHT22;10525;50.154;8.198;2023-04-01T02:48:21;8.40;99.90
20728;DHT22;10525;50.154;8.198;2023-04-01T02:50:47;8.50;99.90
20728;DHT22;10525;50.154;8.198;2023-04-01T02:53:14;8.40;99.90
20728;DHT22;10525;50.154;8.198;2023-04-01T02:55:41;8.40;99.90
20728;DHT22;10525;50.154;8.198;2023-04-01T02:58:09;8.40;99.90
20728;DHT22;10525;50.154;8.198;2023-04-01T03:00:37;8.40;99.90
20728;DHT22;10525;50.154;8.198;2023-04-01T03:03:03;8.40;99.90
20728;DHT22;10525;50.154;8.198;2023-04-01T03:05:30;8.40;99.90
20728;DHT22;10525;50.154;8.198;2023-04-01T03:07:57;8.40;99.90
20728;DHT22;10525;50.154;8.198;2023-04-01T03:10:23;8.40;99.90
20728;DHT22;10525;50.154;8.198;2023-04-01T03:12:50;8.40;99.90
20728;DHT22;10525;50.154;8.198;2023-04-01T03:15:18;8.30;99.90
20728;DHT22;10525;50.154;8.198;2023-04-01T03:17:45;8.40;99.90
20728;DHT22;10525;50.154;8.198;2023-04-01T03:20:13;8.30;99.90
20728;DHT22;10525;50.154;8.198;2023-04-01T03:22:40;8.20;99.90
20728;DHT22;10525;50.154;8.198;2023-04-01T03:25:07;8.10;99.90
20728;DHT22;10525;50.154;8.198;2023-04-01T03:27:34;8.20;99.90
20728;DHT22;10525;50.154;8.198;2023-04-01T03:30:01;8.10;99.90
20728;DHT22;10525;50.154;8.198;2023-04-01T03:32:29;8.10;99.90
20728;DHT22;10525;50.154;8.198;2023-04-01T03:34:56;8.10;99.90
20728;DHT22;10525;50.154;8.198;2023-04-01T03:37:23;8.10;99.90
20728;DHT22;10525;50.154;8.198;2023-04-01T03:39:50;8.10;99.90
20728;DHT22;10525;50.154;8.198;2023-04-01T03:42:16;8.20;99.90
20728;DHT22;10525;50.154;8.198;2023-04-01T03:44:43;8.20;99.90
20728;DHT22;10525;50.154;8.198;2023-04-01T03:47:10;8.10;99.90
20728;DHT22;10525;50.154;8.198;2023-04-01T03:49:38;8.20;99.90
20728;DHT22;10525;50.154;8.198;2023-04-01T03:52:08;8.20;99.90
20728;DHT22;10525;50.154;8.198;2023-04-01T03:54:36;8.10;99.90
20728;DHT22;10525;50.154;8.198;2023-04-01T03:57:02;8.10;99.90
20728;DHT22;10525;50.154;8.198;2023-04-01T03:59:29;8.10;99.90
20728;DHT22;10525;50.154;8.198;2023-04-01T04:01:56;8.20;99.90
20728;DHT22;10525;50.154;8.198;2023-04-01T04:04:22;8.10;99.90
20728;DHT22;10525;50.154;8.198;2023-04-01T04:06:50;8.00;99.90
20728;DHT22;10525;50.154;8.198;2023-04-01T04:09:17;8.00;99.90
20728;DHT22;10525;50.154;8.198;2023-04-01T04:11:44;7.90;99.90
20728;DHT22;10525;50.154;8.198;2023-04-01T04:14:10;7.90;99.90
20728;DHT22;10525;50.154;8.198;2023-04-01T04:16:37;7.90;99.90
20728;DHT22;10525;50.154;8.198;2023-04-01T04:19:04;7.90;99.90
20728;DHT22;10525;50.154;8.198;2023-04-01T04:21:31;7.90;99.90
20728;DHT22;10525;50.154;8.198;2023-04-01T04:24:00;7.90;99.90
20728;DHT22;10525;50.154;8.198;2023-04-01T04:26:27;8.00;99.90
20728;DHT22;10525;50.154;8.198;2023-04-01T04:28:54;8.00;99.90
20728;DHT22;10525;50.154;8.198;2023-04-01T04:31:21;8.10;99.90
20728;DHT22;10525;50.154;8.198;2023-04-01T04:33:49;8.10;99.90
20728;DHT22;10525;50.154;8.198;2023-04-01T04:36:16;8.10;99.90
20728;DHT22;10525;50.154;8.198;2023-04-01T04:38:43;8.20;99.90
20728;DHT22;10525;50.154;8.198;2023-04-01T04:41:12;8.20;99.90
20728;DHT22;10525;50.154;8.198;2023-04-01T04:43:39;8.20;99.90
20728;DHT22;10525;50.154;8.198;2023-04-01T04:46:07;8.20;99.90
20728;DHT22;10525;50.154;8.198;2023-04-01T04:48:33;8.20;99.90
20728;DHT22;10525;50.154;8.198;2023-04-01T04:51:00;8.20;99.90
20728;DHT22;10525;50.154;8.198;2023-04-01T04:53:27;8.20;99.90
20728;DHT22;10525;50.154;8.198;2023-04-01T04:55:54;8.20;99.90
20728;DHT22;10525;50.154;8.198;2023-04-01T04:58:22;8.20;99.90
20728;DHT22;10525;50.154;8.198;2023-04-01T05:00:49;8.20;99.90
20728;DHT22;10525;50.154;8.198;2023-04-01T05:03:15;8.00;99.90
20728;DHT22;10525;50.154;8.198;2023-04-01T05:05:49;7.90;99.90
20728;DHT22;10525;50.154;8.198;2023-04-01T05:08:15;7.80;99.90
20728;DHT22;10525;50.154;8.198;2023-04-01T05:10:42;7.70;99.90
20728;DHT22;10525;50.154;8.198;2023-04-01T05:13:10;7.70;99.90
20728;DHT22;10525;50.154;8.198;2023-04-01T05:15:38;7.70;99.90
20728;DHT22;10525;50.154;8.198;2023-04-01T05:18:04;7.70;99.90
20728;DHT22;10525;50.154;8.198;2023-04-01T05:20:31;7.70;99.90
20728;DHT22;10525;50.154;8.198;2023-04-01T05:22:59;7.70;99.90
20728;DHT22;10525;50.154;8.198;2023-04-01T05:25:25;7.70;99.90
20728;DHT22;10525;50.154;8.198;2023-04-01T05:27:52;7.70;99.90
20728;DHT22;10525;50.154;8.198;2023-04-01T05:30:19;7.70;99.90
20728;DHT22;10525;50.154;8.198;2023-04-01T05:32:47;7.70;99.90
20728;DHT22;10525;50.154;8.198;2023-04-01T05:35:14;7.80;99.90
20728;DHT22;10525;50.154;8.198;2023-04-01T05:37:40;7.80;99.90
20728;DHT22;10525;50.154;8.198;2023-04-01T05:40:08;7.80;99.90
20728;DHT22;10525;50.154;8.198;2023-04-01T05:42:35;7.90;99.90
20728;DHT22;10525;50.154;8.198;2023-04-01T05:45:02;7.90;99.90
20728;DHT22;10525;50.154;8.198;2023-04-01T05:47:29;8.00;99.90
20728;DHT22;10525;50.154;8.198;2023-04-01T05:49:57;8.00;99.90
20728;DHT22;10525;50.154;8.198;2023-04-01T05:52:24;8.00;99.90
20728;DHT22;10525;50.154;8.198;2023-04-01T05:54:50;8.10;99.90
20728;DHT22;10525;50.154;8.198;2023-04-01T05:57:17;8.10;99.90
20728;DHT22;10525;50.154;8.198;2023-04-01T05:59:44;8.10;99.90
20728;DHT22;10525;50.154;8.198;2023-04-01T06:02:11;8.20;99.90
20728;DHT22;10525;50.154;8.198;2023-04-01T06:04:39;8.20;99.90
20728;DHT22;10525;50.154;8.198;2023-04-01T06:07:12;8.30;99.90
20728;DHT22;10525;50.154;8.198;2023-04-01T06:09:39;8.20;99.90
20728;DHT22;10525;50.154;8.198;2023-04-01T06:12:25;8.20;99.90
20728;DHT22;10525;50.154;8.198;2023-04-01T06:14:59;8.20;99.90
20728;DHT22;10525;50.154;8.198;2023-04-01T06:17:43;8.20;99.90
20728;DHT22;10525;50.154;8.198;2023-04-01T06:20:16;8.20;99.90
20728;DHT22;10525;50.154;8.198;2023-04-01T06:23:01;8.10;99.90
20728;DHT22;10525;50.154;8.198;2023-04-01T06:25:41;8.00;99.90
20728;DHT22;10525;50.154;8.198;2023-04-01T06:28:43;7.90;99.90
20728;DHT22;10525;50.154;8.198;2023-04-01T06:31:24;7.90;99.90
20728;DHT22;10525;50.154;8.198;2023-04-01T06:34:05;7.70;99.90
20728;DHT22;10525;50.154;8.198;2023-04-01T06:36:42;7.60;99.90
20728;DHT22;10525;50.154;8.198;2023-04-01T06:39:33;7.60;99.90
20728;DHT22;10525;50.154;8.198;2023-04-01T06:45:07;7.60;99.90
20728;DHT22;10525;50.154;8.198;2023-04-01T06:47:45;7.60;99.90
20728;DHT22;10525;50.154;8.198;2023-04-01T06:50:20;7.60;99.90
20728;DHT22;10525;50.154;8.198;2023-04-01T06:52:53;7.60;99.90
20728;DHT22;10525;50.154;8.198;2023-04-01T06:55:28;7.80;99.90
20728;DHT22;10525;50.154;8.198;2023-04-01T06:58:00;7.80;99.90
20728;DHT22;10525;50.154;8.198;2023-04-01T07:00:31;7.80;99.90
20728;DHT22;10525;50.154;8.198;2023-04-01T07:03:05;8.00;99.90
20728;DHT22;10525;50.154;8.198;2023-04-01T07:05:34;8.00;99.90
20728;DHT22;10525;50.154;8.198;2023-04-01T07:08:04;8.10;99.90
20728;DHT22;10525;50.154;8.198;2023-04-01T07:10:41;8.20;99.90
20728;DHT22;10525;50.154;8.198;2023-04-01T07:13:15;8.20;99.90
20728;DHT22;10525;50.154;8.198;2023-04-01T07:15:48;8.40;99.90
20728;DHT22;10525;50.154;8.198;2023-04-01T07:18:19;8.40;99.90
20728;DHT22;10525;50.154;8.198;2023-04-01T07:20:49;8.40;99.90
20728;DHT22;10525;50.154;8.198;2023-04-01T07:23:21;8.40;99.90
20728;DHT22;10525;50.154;8.198;2023-04-01T07:25:55;8.40;99.90
20728;DHT22;10525;50.154;8.198;2023-04-01T07:28:22;8.60;99.90
20728;DHT22;10525;50.154;8.198;2023-04-01T07:30:57;8.70;99.90
20728;DHT22;10525;50.154;8.198;2023-04-01T07:33:33;8.70;99.90
20728;DHT22;10525;50.154;8.198;2023-04-01T07:36:06;8.90;99.90
20728;DHT22;10525;50.154;8.198;2023-04-01T07:38:44;8.90;99.90
20728;DHT22;10525;50.154;8.198;2023-04-01T07:41:23;9.00;99.90
20728;DHT22;10525;50.154;8.198;2023-04-01T07:44:05;9.10;99.90
20728;DHT22;10525;50.154;8.198;2023-04-01T07:46:43;9.10;99.90
20728;DHT22;10525;50.154;8.198;2023-04-01T07:49:15;9.10;99.90
20728;DHT22;10525;50.154;8.198;2023-04-01T07:51:49;9.10;99.90
20728;DHT22;10525;50.154;8.198;2023-04-01T07:54:22;8.90;99.90
20728;DHT22;10525;50.154;8.198;2023-04-01T07:56:55;9.00;99.90
20728;DHT22;10525;50.154;8.198;2023-04-01T07:59:28;8.90;99.90
20728;DHT22;10525;50.154;8.198;2023-04-01T08:02:03;8.90;99.90
20728;DHT22;10525;50.154;8.198;2023-04-01T08:04:41;9.00;99.90
20728;DHT22;10525;50.154;8.198;2023-04-01T08:07:16;9.20;99.90
20728;DHT22;10525;50.154;8.198;2023-04-01T08:09:48;9.20;99.90
20728;DHT22;10525;50.154;8.198;2023-04-01T08:12:27;9.30;99.90
20728;DHT22;10525;50.154;8.198;2023-04-01T08:15:06;9.30;99.90
20728;DHT22;10525;50.154;8.198;2023-04-01T08:17:39;9.20;99.90
20728;DHT22;10525;50.154;8.198;2023-04-01T08:20:22;9.20;99.90
20728;DHT22;10525;50.154;8.198;2023-04-01T08:22:53;9.40;99.90
20728;DHT22;10525;50.154;8.198;2023-04-01T08:25:25;9.50;99.90
20728;DHT22;10525;50.154;8.198;2023-04-01T08:27:57;9.40;99.90
20728;DHT22;10525;50.154;8.198;2023-04-01T08:30:30;9.40;99.90
20728;DHT22;10525;50.154;8.198;2023-04-01T08:33:05;9.40;99.90
20728;DHT22;10525;50.154;8.198;2023-04-01T08:35:38;9.50;99.90
20728;DHT22;10525;50.154;8.198;2023-04-01T08:38:12;9.60;99.90
20728;DHT22;10525;50.154;8.198;2023-04-01T08:40:56;9.60;99.90
20728;DHT22;10525;50.154;8.198;2023-04-01T08:43:46;9.80;99.90
20728;DHT22;10525;50.154;8.198;2023-04-01T08:46:40;9.80;99.90
20728;DHT22;10525;50.154;8.198;2023-04-01T08:49:26;9.80;99.90
20728;DHT22;10525;50.154;8.198;2023-04-01T08:55:20;9.50;99.90
20728;DHT22;10525;50.154;8.198;2023-04-01T08:57:58;9.50;99.90
20728;DHT22;10525;50.154;8.198;2023-04-01T09:00:31;9.60;99.90
20728;DHT22;10525;50.154;8.198;2023-04-01T09:06:35;9.50;99.90
20728;DHT22;10525;50.154;8.198;2023-04-01T09:09:25;9.80;99.90
20728;DHT22;10525;50.154;8.198;2023-04-01T09:15:19;10.50;99.90
20728;DHT22;10525;50.154;8.198;2023-04-01T09:18:09;10.70;99.90
20728;DHT22;10525;50.154;8.198;2023-04-01T09:21:10;10.90;99.90
20728;DHT22;10525;50.154;8.198;2023-04-01T09:23:47;10.60;99.90
20728;DHT22;10525;50.154;8.198;2023-04-01T09:26:33;10.40;99.90
20728;DHT22;10525;50.154;8.198;2023-04-01T09:29:14;10.60;99.90
20728;DHT22;10525;50.154;8.198;2023-04-01T09:31:57;10.60;99.90
20728;DHT22;10525;50.154;8.198;2023-04-01T09:34:41;10.60;99.90
20728;DHT22;10525;50.154;8.198;2023-04-01T09:37:33;10.60;99.90
20728;DHT22;10525;50.154;8.198;2023-04-01T09:40:15;10.50;99.90
20728;DHT22;10525;50.154;8.198;2023-04-01T09:42:51;10.60;99.90
20728;DHT22;10525;50.154;8.198;2023-04-01T09:48:28;10.60;99.90
20728;DHT22;10525;50.154;8.198;2023-04-01T09:51:05;10.40;99.90
20728;DHT22;10525;50.154;8.198;2023-04-01T09:53:48;10.30;99.90
20728;DHT22;10525;50.154;8.198;2023-04-01T09:59:47;10.30;99.90
20728;DHT22;10525;50.154;8.198;2023-04-01T10:02:45;10.40;99.90
20728;DHT22;10525;50.154;8.198;2023-04-01T10:05:51;10.60;99.90
20728;DHT22;10525;50.154;8.198;2023-04-01T10:14:44;10.70;99.90
20728;DHT22;10525;50.154;8.198;2023-04-01T10:17:44;10.70;99.90
20728;DHT22;10525;50.154;8.198;2023-04-01T10:20:41;10.60;99.90
20728;DHT22;10525;50.154;8.198;2023-04-01T10:23:26;10.60;99.90
20728;DHT22;10525;50.154;8.198;2023-04-01T10:35:35;10.50;99.90
20728;DHT22;10525;50.154;8.198;2023-04-01T10:38:25;10.70;99.90
20728;DHT22;10525;50.154;8.198;2023-04-01T10:41:28;10.90;99.90
20728;DHT22;10525;50.154;8.198;2023-04-01T10:44:17;11.20;99.90
20728;DHT22;10525;50.154;8.198;2023-04-01T10:50:21;11.90;99.90
20728;DHT22;10525;50.154;8.198;2023-04-01T10:59:45;11.00;99.90
20728;DHT22;10525;50.154;8.198;2023-04-01T11:02:57;11.00;99.90
20728;DHT22;10525;50.154;8.198;2023-04-01T11:06:03;10.90;99.90
20728;DHT22;10525;50.154;8.198;2023-04-01T11:15:09;11.50;99.90
20728;DHT22;10525;50.154;8.198;2023-04-01T11:24:15;11.90;99.90
20728;DHT22;10525;50.154;8.198;2023-04-01T11:26:52;11.80;99.90
20728;DHT22;10525;50.154;8.198;2023-04-01T11:29:41;11.40;99.90
20728;DHT22;10525;50.154;8.198;2023-04-01T11:32:24;11.20;99.90
20728;DHT22;10525;50.154;8.198;2023-04-01T11:35:13;11.30;99.90
20728;DHT22;10525;50.154;8.198;2023-04-01T11:37:50;11.70;99.90
20728;DHT22;10525;50.154;8.198;2023-04-01T11:40:27;11.90;99.90
20728;DHT22;10525;50.154;8.198;2023-04-01T11:43:02;12.10;99.90
20728;DHT22;10525;50.154;8.198;2023-04-01T11:45:36;12.30;99.90
20728;DHT22;10525;50.154;8.198;2023-04-01T11:48:20;12.20;99.90
20728;DHT22;10525;50.154;8.198;2023-04-01T11:51:20;12.00;99.90
20728;DHT22;10525;50.154;8.198;2023-04-01T11:53:58;11.90;99.90
20728;DHT22;10525;50.154;8.198;2023-04-01T11:56:51;11.60;99.90
20728;DHT22;10525;50.154;8.198;2023-04-01T11:59:42;11.50;99.90
20728;DHT22;10525;50.154;8.198;2023-04-01T12:02:17;11.30;99.90
20728;DHT22;10525;50.154;8.198;2023-04-01T12:04:58;11.20;99.90
20728;DHT22;10525;50.154;8.198;2023-04-01T12:07:50;11.20;99.90
20728;DHT22;10525;50.154;8.198;2023-04-01T12:10:20;11.30;99.90
20728;DHT22;10525;50.154;8.198;2023-04-01T12:12:54;11.40;99.90
20728;DHT22;10525;50.154;8.198;2023-04-01T12:15:29;11.30;99.90
20728;DHT22;10525;50.154;8.198;2023-04-01T12:18:03;11.40;99.90
20728;DHT22;10525;50.154;8.198;2023-04-01T12:20:44;11.50;99.90
20728;DHT22;10525;50.154;8.198;2023-04-01T12:23:29;11.50;99.90
20728;DHT22;10525;50.154;8.198;2023-04-01T12:29:25;11.30;99.90
20728;DHT22;10525;50.154;8.198;2023-04-01T12:32:03;11.50;99.90
20728;DHT22;10525;50.154;8.198;2023-04-01T12:34:49;11.60;99.90
20728;DHT22;10525;50.154;8.198;2023-04-01T12:37:30;11.90;99.90
20728;DHT22;10525;50.154;8.198;2023-04-01T12:40:06;12.60;99.90
20728;DHT22;10525;50.154;8.198;2023-04-01T12:42:51;12.80;99.90
20728;DHT22;10525;50.154;8.198;2023-04-01T12:45:29;12.90;99.90
20728;DHT22;10525;50.154;8.198;2023-04-01T12:48:08;12.80;99.90
20728;DHT22;10525;50.154;8.198;2023-04-01T12:50:58;12.70;99.90
20728;DHT22;10525;50.154;8.198;2023-04-01T12:53:41;13.10;99.90
20728;DHT22;10525;50.154;8.198;2023-04-01T12:56:14;13.30;99.90
20728;DHT22;10525;50.154;8.198;2023-04-01T12:58:58;13.60;99.90
20728;DHT22;10525;50.154;8.198;2023-04-01T13:01:47;13.90;99.90
20728;DHT22;10525;50.154;8.198;2023-04-01T13:07:46;13.90;99.90
20728;DHT22;10525;50.154;8.198;2023-04-01T13:10:37;13.60;99.90
20728;DHT22;10525;50.154;8.198;2023-04-01T13:13:39;13.50;99.90
20728;DHT22;10525;50.154;8.198;2023-04-01T13:16:13;13.20;99.90
20728;DHT22;10525;50.154;8.198;2023-04-01T13:18:53;13.20;99.90
20728;DHT22;10525;50.154;8.198;2023-04-01T13:21:30;13.10;99.90
20728;DHT22;10525;50.154;8.198;2023-04-01T13:24:05;13.20;99.90
20728;DHT22;10525;50.154;8.198;2023-04-01T13:26:41;13.40;99.90
20728;DHT22;10525;50.154;8.198;2023-04-01T13:29:14;13.40;99.90
20728;DHT22;10525;50.154;8.198;2023-04-01T13:32:00;13.60;99.90
20728;DHT22;10525;50.154;8.198;2023-04-01T13:34:44;13.90;99.90
20728;DHT22;10525;50.154;8.198;2023-04-01T13:37:22;13.60;99.90
20728;DHT22;10525;50.154;8.198;2023-04-01T13:40:15;13.20;99.90
20728;DHT22;10525;50.154;8.198;2023-04-01T13:42:49;13.10;99.90
20728;DHT22;10525;50.154;8.198;2023-04-01T13:45:19;12.90;99.90
20728;DHT22;10525;50.154;8.198;2023-04-01T13:48:15;12.60;99.90
20728;DHT22;10525;50.154;8.198;2023-04-01T13:51:16;12.40;99.90
20728;DHT22;10525;50.154;8.198;2023-04-01T13:54:04;12.30;99.90
20728;DHT22;10525;50.154;8.198;2023-04-01T13:56:42;12.20;99.90
20728;DHT22;10525;50.154;8.198;2023-04-01T13:59:49;12.20;99.90
20728;DHT22;10525;50.154;8.198;2023-04-01T14:02:29;12.50;99.90
20728;DHT22;10525;50.154;8.198;2023-04-01T14:05:25;12.90;99.90
20728;DHT22;10525;50.154;8.198;2023-04-01T14:08:03;13.50;99.90
20728;DHT22;10525;50.154;8.198;2023-04-01T14:10:38;13.70;99.90
20728;DHT22;10525;50.154;8.198;2023-04-01T14:13:12;13.70;99.90
20728;DHT22;10525;50.154;8.198;2023-04-01T14:15:58;13.70;99.90
20728;DHT22;10525;50.154;8.198;2023-04-01T14:18:56;13.30;99.90
20728;DHT22;10525;50.154;8.198;2023-04-01T14:21:33;13.10;99.90
20728;DHT22;10525;50.154;8.198;2023-04-01T14:24:30;12.80;99.90
20728;DHT22;10525;50.154;8.198;2023-04-01T14:27:18;12.70;99.90
20728;DHT22;10525;50.154;8.198;2023-04-01T14:30:01;12.70;99.90
20728;DHT22;10525;50.154;8.198;2023-04-01T14:32:37;13.00;99.90
20728;DHT22;10525;50.154;8.198;2023-04-01T14:35:19;13.30;99.90
20728;DHT22;10525;50.154;8.198;2023-04-01T14:38:14;13.80;99.90
20728;DHT22;10525;50.154;8.198;2023-04-01T14:41:06;13.40;99.90
20728;DHT22;10525;50.154;8.198;2023-04-01T14:44:08;12.60;99.90
20728;DHT22;10525;50.154;8.198;2023-04-01T14:49:44;11.60;99.90
20728;DHT22;10525;50.154;8.198;2023-04-01T14:52:15;11.10;99.90
20728;DHT22;10525;50.154;8.198;2023-04-01T14:54:44;10.80;99.90
20728;DHT22;10525;50.154;8.198;2023-04-01T14:57:14;10.50;99.90
20728;DHT22;10525;50.154;8.198;2023-04-01T14:59:48;10.50;99.90
20728;DHT22;10525;50.154;8.198;2023-04-01T15:02:37;10.50;99.90
20728;DHT22;10525;50.154;8.198;2023-04-01T15:05:27;10.60;99.90
20728;DHT22;10525;50.154;8.198;2023-04-01T15:08:12;10.60;99.90
20728;DHT22;10525;50.154;8.198;2023-04-01T15:10:58;10.90;99.90
20728;DHT22;10525;50.154;8.198;2023-04-01T15:13:44;11.20;99.90
20728;DHT22;10525;50.154;8.198;2023-04-01T15:16:21;11.50;99.90
20728;DHT22;10525;50.154;8.198;2023-04-01T15:18:56;11.70;99.90
20728;DHT22;10525;50.154;8.198;2023-04-01T15:21:43;12.20;99.90
20728;DHT22;10525;50.154;8.198;2023-04-01T15:24:20;12.70;99.90
20728;DHT22;10525;50.154;8.198;2023-04-01T15:26:57;13.00;99.90
20728;DHT22;10525;50.154;8.198;2023-04-01T15:29:41;13.00;99.90
20728;DHT22;10525;50.154;8.198;2023-04-01T15:32:17;12.70;99.90
20728;DHT22;10525;50.154;8.198;2023-04-01T15:34:49;12.50;99.90
20728;DHT22;10525;50.154;8.198;2023-04-01T15:37:28;12.40;99.90
20728;DHT22;10525;50.154;8.198;2023-04-01T15:40:02;12.30;99.90
20728;DHT22;10525;50.154;8.198;2023-04-01T15:42:44;12.00;99.90
20728;DHT22;10525;50.154;8.198;2023-04-01T15:45:28;11.60;99.90
20728;DHT22;10525;50.154;8.198;2023-04-01T15:48:05;10.90;99.90
20728;DHT22;10525;50.154;8.198;2023-04-01T15:50:50;10.60;99.90
20728;DHT22;10525;50.154;8.198;2023-04-01T15:53:47;10.50;99.90
20728;DHT22;10525;50.154;8.198;2023-04-01T15:56:25;10.30;99.90
20728;DHT22;10525;50.154;8.198;2023-04-01T15:59:00;10.40;99.90
20728;DHT22;10525;50.154;8.198;2023-04-01T16:01:36;10.40;99.90
20728;DHT22;10525;50.154;8.198;2023-04-01T16:04:18;10.60;99.90
20728;DHT22;10525;50.154;8.198;2023-04-01T16:07:00;10.60;99.90
20728;DHT22;10525;50.154;8.198;2023-04-01T16:09:43;10.60;99.90
20728;DHT22;10525;50.154;8.198;2023-04-01T16:12:18;10.60;99.90
20728;DHT22;10525;50.154;8.198;2023-04-01T16:14:55;10.60;99.90
20728;DHT22;10525;50.154;8.198;2023-04-01T16:17:33;10.60;99.90
20728;DHT22;10525;50.154;8.198;2023-04-01T16:20:03;10.60;99.90
20728;DHT22;10525;50.154;8.198;2023-04-01T16:22:40;10.40;99.90
20728;DHT22;10525;50.154;8.198;2023-04-01T16:25:29;10.40;99.90
20728;DHT22;10525;50.154;8.198;2023-04-01T16:28:09;10.50;99.90
20728;DHT22;10525;50.154;8.198;2023-04-01T16:30:45;10.70;99.90
20728;DHT22;10525;50.154;8.198;2023-04-01T16:33:19;10.80;99.90
20728;DHT22;10525;50.154;8.198;2023-04-01T16:35:53;10.70;99.90
20728;DHT22;10525;50.154;8.198;2023-04-01T16:38:24;10.60;99.90
20728;DHT22;10525;50.154;8.198;2023-04-01T16:41:07;10.50;99.90
20728;DHT22;10525;50.154;8.198;2023-04-01T16:43:40;10.30;99.90
20728;DHT22;10525;50.154;8.198;2023-04-01T16:46:41;10.00;99.90
20728;DHT22;10525;50.154;8.198;2023-04-01T16:49:29;9.80;99.90
20728;DHT22;10525;50.154;8.198;2023-04-01T16:52:12;9.80;99.90
20728;DHT22;10525;50.154;8.198;2023-04-01T16:54:43;9.80;99.90
20728;DHT22;10525;50.154;8.198;2023-04-01T16:57:18;9.90;99.90
20728;DHT22;10525;50.154;8.198;2023-04-01T16:59:52;10.10;99.90
20728;DHT22;10525;50.154;8.198;2023-04-01T17:02:23;10.10;99.90
20728;DHT22;10525;50.154;8.198;2023-04-01T17:04:57;10.10;99.90
20728;DHT22;10525;50.154;8.198;2023-04-01T17:07:34;10.00;99.90
20728;DHT22;10525;50.154;8.198;2023-04-01T17:10:18;10.00;99.90
20728;DHT22;10525;50.154;8.198;2023-04-01T17:12:58;10.00;99.90
20728;DHT22;10525;50.154;8.198;2023-04-01T17:15:34;9.90;99.90
20728;DHT22;10525;50.154;8.198;2023-04-01T17:18:10;9.80;99.90
20728;DHT22;10525;50.154;8.198;2023-04-01T17:20:42;9.60;99.90
20728;DHT22;10525;50.154;8.198;2023-04-01T17:23:14;9.60;99.90
20728;DHT22;10525;50.154;8.198;2023-04-01T17:26:06;9.60;99.90
20728;DHT22;10525;50.154;8.198;2023-04-01T17:28:46;9.50;99.90
20728;DHT22;10525;50.154;8.198;2023-04-01T17:31:23;9.60;99.90
20728;DHT22;10525;50.154;8.198;2023-04-01T17:37:25;9.50;99.90
20728;DHT22;10525;50.154;8.198;2023-04-01T17:40:01;9.30;99.90
20728;DHT22;10525;50.154;8.198;2023-04-01T17:42:38;9.30;99.90
20728;DHT22;10525;50.154;8.198;2023-04-01T17:45:11;9.30;99.90
20728;DHT22;10525;50.154;8.198;2023-04-01T17:47:52;9.30;99.90
20728;DHT22;10525;50.154;8.198;2023-04-01T17:50:35;9.20;99.90